Time,TemperatureF,DewpointF,PressureIn,WindDirection,WindDirectionDegrees,WindSpeedMPH,WindSpeedGustMPH,Humidity,HourlyPrecipIn,Conditions,Clouds,dailyrainin,SoftwareType,DateUTC
2013-11-15 00:12:00,39.0,18.0,30.17,West,276,0.0,0.0,42,0.00,,,0.00,weatherlink.com 1.10,2013-11-15 05:12:00,
2013-11-15 00:27:00,38.2,17.0,30.16,West,276,0.0,0.0,43,0.00,,,0.00,weatherlink.com 1.10,2013-11-15 05:27:00,
2013-11-15 00:42:00,37.8,18.0,30.17,West,276,0.0,1.0,45,0.00,,,0.00,weatherlink.com 1.10,2013-11-15 05:42:00,
2013-11-15 00:57:00,37.9,18.0,30.17,West,276,0.0,1.0,45,0.00,,,0.00,weatherlink.com 1.10,2013-11-15 05:57:00,
2013-11-15 01:12:00,37.8,19.0,30.17,West,276,0.0,0.0,46,0.00,,,0.00,weatherlink.com 1.10,2013-11-15 06:12:00,
2013-11-15 01:27:00,37.1,18.0,30.17,West,276,0.0,1.0,47,0.00,,,0.00,weatherlink.com 1.10,2013-11-15 06:27:00,
2013-11-15 01:42:00,36.7,19.0,30.17,West,276,0.0,1.0,49,0.00,,,0.00,weatherlink.com 1.10,2013-11-15 06:42:00,
2013-11-15 01:57:00,36.9,20.0,30.17,West,276,0.0,1.0,50,0.00,,,0.00,weatherlink.com 1.10,2013-11-15 06:57:00,
2013-11-15 02:12:00,37.2,20.0,30.17,West,276,0.0,1.0,50,0.00,,,0.00,weatherlink.com 1.10,2013-11-15 07:12:00,
2013-11-15 02:27:00,37.0,20.0,30.18,West,276,0.0,1.0,51,0.00,,,0.00,weatherlink.com 1.10,2013-11-15 07:27:00,
2013-11-15 02:42:00,36.9,20.0,30.17,West,276,0.0,1.0,51,0.00,,,0.00,weatherlink.com 1.10,2013-11-15 07:42:00,
2013-11-15 02:57:00,37.0,21.0,30.17,West,276,0.0,0.0,52,0.00,,,0.00,weatherlink.com 1.10,2013-11-15 07:57:00,
2013-11-15 03:12:00,36.7,21.0,30.17,West,276,0.0,1.0,53,0.00,,,0.00,weatherlink.com 1.10,2013-11-15 08:12:00,
2013-11-15 03:27:00,36.2,21.0,30.18,West,276,0.0,1.0,54,0.00,,,0.00,weatherlink.com 1.10,2013-11-15 08:27:00,
2013-11-15 03:42:00,36.1,21.0,30.18,West,276,0.0,0.0,55,0.00,,,0.00,weatherlink.com 1.10,2013-11-15 08:42:00,
2013-11-15 03:57:00,35.8,21.0,30.18,West,276,0.0,0.0,56,0.00,,,0.00,weatherlink.com 1.10,2013-11-15 08:57:00,
2013-11-15 04:12:00,35.6,22.0,30.18,West,276,0.0,0.0,57,0.00,,,0.00,weatherlink.com 1.10,2013-11-15 09:12:00,
2013-11-15 04:27:00,35.7,22.0,30.18,West,276,0.0,0.0,57,0.00,,,0.00,weatherlink.com 1.10,2013-11-15 09:27:00,
2013-11-15 04:42:00,34.8,22.0,30.19,West,276,0.0,0.0,59,0.00,,,0.00,weatherlink.com 1.10,2013-11-15 09:42:00,
2013-11-15 04:57:00,34.5,22.0,30.18,West,276,0.0,0.0,60,0.00,,,0.00,weatherlink.com 1.10,2013-11-15 09:57:00,
2013-11-15 05:13:00,34.4,22.0,30.18,West,276,0.0,0.0,60,0.00,,,0.00,weatherlink.com 1.10,2013-11-15 10:13:00,
2013-11-15 05:28:00,34.7,22.0,30.18,West,276,0.0,0.0,60,0.00,,,0.00,weatherlink.com 1.10,2013-11-15 10:28:00,
2013-11-15 05:43:00,35.4,22.0,30.19,West,276,0.0,0.0,59,0.00,,,0.00,weatherlink.com 1.10,2013-11-15 10:43:00,
2013-11-15 05:58:00,35.9,23.0,30.20,West,276,0.0,0.0,59,0.00,,,0.00,weatherlink.com 1.10,2013-11-15 10:58:00,
2013-11-15 06:13:00,36.0,23.0,30.20,West,276,0.0,0.0,60,0.00,,,0.00,weatherlink.com 1.10,2013-11-15 11:13:00,
2013-11-15 06:28:00,35.5,23.0,30.20,West,276,0.0,0.0,61,0.00,,,0.00,weatherlink.com 1.10,2013-11-15 11:28:00,
2013-11-15 06:43:00,34.8,23.0,30.20,West,276,0.0,0.0,62,0.00,,,0.00,weatherlink.com 1.10,2013-11-15 11:43:00,
2013-11-15 06:58:00,33.7,23.0,30.21,West,276,0.0,1.0,65,0.00,,,0.00,weatherlink.com 1.10,2013-11-15 11:58:00,
2013-11-15 07:13:00,33.8,23.0,30.21,West,276,0.0,0.0,64,0.00,,,0.00,weatherlink.com 1.10,2013-11-15 12:13:00,
2013-11-15 07:28:00,34.3,23.0,30.22,West,276,0.0,1.0,64,0.00,,,0.00,weatherlink.com 1.10,2013-11-15 12:28:00,
2013-11-15 07:43:00,35.5,24.0,30.22,West,276,0.0,0.0,62,0.00,,,0.00,weatherlink.com 1.10,2013-11-15 12:43:00,
2013-11-15 07:58:00,36.4,24.0,30.22,West,276,0.0,0.0,61,0.00,,,0.00,weatherlink.com 1.10,2013-11-15 12:58:00,
2013-11-15 08:13:00,37.4,26.0,30.22,West,276,0.0,0.0,63,0.00,,,0.00,weatherlink.com 1.10,2013-11-15 13:13:00,
2013-11-15 08:28:00,38.1,25.0,30.22,West,263,0.0,3.0,59,0.00,,,0.00,weatherlink.com 1.10,2013-11-15 13:28:00,
2013-11-15 08:43:00,38.5,25.0,30.22,West,263,0.0,0.0,59,0.00,,,0.00,weatherlink.com 1.10,2013-11-15 13:43:00,
2013-11-15 08:58:00,39.6,25.0,30.23,West,263,0.0,2.0,57,0.00,,,0.00,weatherlink.com 1.10,2013-11-15 13:58:00,
2013-11-15 09:13:00,40.8,26.0,30.23,West,263,2.0,3.0,55,0.00,,,0.00,weatherlink.com 1.10,2013-11-15 14:13:00,
2013-11-15 09:28:00,41.6,25.0,30.23,SW,228,0.0,1.0,53,0.00,,,0.00,weatherlink.com 1.10,2013-11-15 14:28:00,
2013-11-15 09:43:00,42.4,26.0,30.24,SW,228,0.0,2.0,52,0.00,,,0.00,weatherlink.com 1.10,2013-11-15 14:43:00,
2013-11-15 09:58:00,43.8,26.0,30.23,SW,220,0.0,3.0,50,0.00,,,0.00,weatherlink.com 1.10,2013-11-15 14:58:00,
2013-11-15 10:13:00,44.8,26.0,30.23,SW,220,0.0,2.0,48,0.00,,,0.00,weatherlink.com 1.10,2013-11-15 15:13:00,
2013-11-15 10:28:00,46.3,26.0,30.22,SW,220,0.0,2.0,46,0.00,,,0.00,weatherlink.com 1.10,2013-11-15 15:28:00,
2013-11-15 10:43:00,47.9,26.0,30.21,SW,221,0.0,3.0,42,0.00,,,0.00,weatherlink.com 1.10,2013-11-15 15:43:00,
2013-11-15 10:58:00,49.9,26.0,30.20,SW,221,0.0,2.0,40,0.00,,,0.00,weatherlink.com 1.10,2013-11-15 15:58:00,
2013-11-15 11:13:00,51.5,26.0,30.20,NW,319,1.0,3.0,37,0.00,,,0.00,weatherlink.com 1.10,2013-11-15 16:13:00,
2013-11-15 11:28:00,52.1,26.0,30.19,SW,216,1.0,4.0,36,0.00,,,0.00,weatherlink.com 1.10,2013-11-15 16:28:00,
2013-11-15 11:43:00,52.5,26.0,30.19,West,265,0.0,3.0,36,0.00,,,0.00,weatherlink.com 1.10,2013-11-15 16:43:00,
2013-11-15 11:58:00,53.4,25.0,30.18,South,190,0.0,4.0,34,0.00,,,0.00,weatherlink.com 1.10,2013-11-15 16:58:00,
2013-11-15 12:14:00,54.0,25.0,30.18,South,188,2.0,4.0,32,0.00,,,0.00,weatherlink.com 1.10,2013-11-15 17:14:00,
2013-11-15 12:29:00,54.6,25.0,30.17,West,269,2.0,3.0,32,0.00,,,0.00,weatherlink.com 1.10,2013-11-15 17:29:00,
2013-11-15 12:44:00,55.0,25.0,30.16,SW,217,0.0,7.0,31,0.00,,,0.00,weatherlink.com 1.10,2013-11-15 17:44:00,
2013-11-15 12:59:00,55.8,25.0,30.15,South,183,0.0,4.0,31,0.00,,,0.00,weatherlink.com 1.10,2013-11-15 17:59:00,
2013-11-15 13:14:00,56.1,26.0,30.15,South,190,3.0,5.0,31,0.00,,,0.00,weatherlink.com 1.10,2013-11-15 18:14:00,
2013-11-15 13:29:00,56.0,25.0,30.15,South,188,3.0,9.0,30,0.00,,,0.00,weatherlink.com 1.10,2013-11-15 18:29:00,
2013-11-15 13:44:00,56.0,26.0,30.14,SSW,205,4.0,7.0,31,0.00,,,0.00,weatherlink.com 1.10,2013-11-15 18:44:00,
2013-11-15 13:59:00,56.2,23.0,30.15,South,180,0.0,6.0,28,0.00,,,0.00,weatherlink.com 1.10,2013-11-15 18:59:00,
2013-11-15 14:14:00,56.1,23.0,30.15,WNW,298,0.0,3.0,28,0.00,,,0.00,weatherlink.com 1.10,2013-11-15 19:14:00,
2013-11-15 14:29:00,56.1,24.0,30.14,SSW,194,0.0,4.0,29,0.00,,,0.00,weatherlink.com 1.10,2013-11-15 19:29:00,
2013-11-15 14:44:00,56.2,24.0,30.14,South,179,0.0,5.0,29,0.00,,,0.00,weatherlink.com 1.10,2013-11-15 19:44:00,
2013-11-15 14:59:00,56.0,24.0,30.14,South,186,3.0,4.0,29,0.00,,,0.00,weatherlink.com 1.10,2013-11-15 19:59:00,
2013-11-15 15:14:00,55.7,25.0,30.13,South,175,0.0,1.0,30,0.00,,,0.00,weatherlink.com 1.10,2013-11-15 20:14:00,
2013-11-15 15:29:00,55.5,24.0,30.14,South,175,0.0,2.0,30,0.00,,,0.00,weatherlink.com 1.10,2013-11-15 20:29:00,
2013-11-15 15:44:00,55.1,24.0,30.14,South,178,0.0,5.0,30,0.00,,,0.00,weatherlink.com 1.10,2013-11-15 20:44:00,
2013-11-15 15:59:00,54.8,25.0,30.15,SSW,200,0.0,5.0,31,0.00,,,0.00,weatherlink.com 1.10,2013-11-15 20:59:00,
2013-11-15 16:14:00,54.2,24.0,30.16,South,187,3.0,4.0,31,0.00,,,0.00,weatherlink.com 1.10,2013-11-15 21:14:00,
2013-11-15 16:29:00,53.3,25.0,30.16,SSW,194,2.0,3.0,33,0.00,,,0.00,weatherlink.com 1.10,2013-11-15 21:29:00,
2013-11-15 16:44:00,52.3,25.0,30.16,SSW,195,0.0,3.0,35,0.00,,,0.00,weatherlink.com 1.10,2013-11-15 21:44:00,
2013-11-15 16:59:00,51.8,25.0,30.16,SSW,195,0.0,2.0,36,0.00,,,0.00,weatherlink.com 1.10,2013-11-15 21:59:00,
2013-11-15 17:14:00,51.3,26.0,30.16,SSW,195,0.0,2.0,37,0.00,,,0.00,weatherlink.com 1.10,2013-11-15 22:14:00,
2013-11-15 17:29:00,50.7,26.0,30.16,SSW,195,0.0,1.0,39,0.00,,,0.00,weatherlink.com 1.10,2013-11-15 22:29:00,
2013-11-15 17:44:00,50.0,27.0,30.17,SSW,195,0.0,1.0,41,0.00,,,0.00,weatherlink.com 1.10,2013-11-15 22:44:00,
2013-11-15 17:59:00,49.4,26.0,30.17,SSW,195,0.0,1.0,41,0.00,,,0.00,weatherlink.com 1.10,2013-11-15 22:59:00,
2013-11-15 18:14:00,49.1,27.0,30.18,SSW,195,0.0,0.0,42,0.00,,,0.00,weatherlink.com 1.10,2013-11-15 23:14:00,
2013-11-15 18:29:00,48.7,26.0,30.18,SSW,195,0.0,0.0,42,0.00,,,0.00,weatherlink.com 1.10,2013-11-15 23:29:00,
2013-11-15 18:44:00,48.4,26.0,30.17,SSW,195,0.0,1.0,42,0.00,,,0.00,weatherlink.com 1.10,2013-11-15 23:44:00,
2013-11-15 18:59:00,48.3,26.0,30.17,SSW,195,0.0,1.0,42,0.00,,,0.00,weatherlink.com 1.10,2013-11-15 23:59:00,
2013-11-15 19:14:00,47.9,26.0,30.16,SSW,195,0.0,1.0,42,0.00,,,0.00,weatherlink.com 1.10,2013-11-16 00:14:00,
2013-11-15 19:29:00,47.6,25.0,30.17,SSW,195,0.0,1.0,42,0.00,,,0.00,weatherlink.com 1.10,2013-11-16 00:29:00,
2013-11-15 19:44:00,46.8,26.0,30.18,SSW,195,0.0,2.0,44,0.00,,,0.00,weatherlink.com 1.10,2013-11-16 00:44:00,
2013-11-15 19:59:00,45.9,25.0,30.18,SSW,196,0.0,1.0,45,0.00,,,0.00,weatherlink.com 1.10,2013-11-16 00:59:00,
2013-11-15 20:14:00,45.3,25.0,30.18,SSW,196,0.0,0.0,46,0.00,,,0.00,weatherlink.com 1.10,2013-11-16 01:14:00,
2013-11-15 20:29:00,45.0,26.0,30.19,SSW,196,0.0,2.0,48,0.00,,,0.00,weatherlink.com 1.10,2013-11-16 01:29:00,
2013-11-15 20:44:00,44.5,26.0,30.19,SSW,196,0.0,0.0,49,0.00,,,0.00,weatherlink.com 1.10,2013-11-16 01:44:00,
2013-11-15 20:59:00,44.2,26.0,30.19,SSW,196,0.0,1.0,50,0.00,,,0.00,weatherlink.com 1.10,2013-11-16 01:59:00,
2013-11-15 21:14:00,43.9,26.0,30.19,SSW,196,0.0,1.0,50,0.00,,,0.00,weatherlink.com 1.10,2013-11-16 02:14:00,
2013-11-15 21:29:00,43.6,26.0,30.19,SSW,196,0.0,1.0,51,0.00,,,0.00,weatherlink.com 1.10,2013-11-16 02:29:00,
2013-11-15 21:44:00,43.3,26.0,30.19,SSW,196,0.0,1.0,50,0.00,,,0.00,weatherlink.com 1.10,2013-11-16 02:44:00,
2013-11-15 21:59:00,43.2,26.0,30.19,SSW,196,0.0,2.0,51,0.00,,,0.00,weatherlink.com 1.10,2013-11-16 02:59:00,
2013-11-15 22:14:00,43.1,26.0,30.19,SSW,196,0.0,1.0,51,0.00,,,0.00,weatherlink.com 1.10,2013-11-16 03:14:00,
2013-11-15 22:29:00,43.2,26.0,30.19,SSW,196,0.0,1.0,50,0.00,,,0.00,weatherlink.com 1.10,2013-11-16 03:29:00,
2013-11-15 22:44:00,42.9,26.0,30.20,SSW,196,0.0,1.0,51,0.00,,,0.00,weatherlink.com 1.10,2013-11-16 03:44:00,
2013-11-15 22:59:00,42.5,25.0,30.20,SSW,196,0.0,0.0,51,0.00,,,0.00,weatherlink.com 1.10,2013-11-16 03:59:00,
2013-11-15 23:14:00,42.2,26.0,30.21,SSW,196,0.0,0.0,52,0.00,,,0.00,weatherlink.com 1.10,2013-11-16 04:14:00,
2013-11-15 23:29:00,41.8,26.0,30.21,SSW,196,0.0,1.0,53,0.00,,,0.00,weatherlink.com 1.10,2013-11-16 04:29:00,
2013-11-15 23:44:00,42.1,25.0,30.21,SSW,196,0.0,0.0,52,0.00,,,0.00,weatherlink.com 1.10,2013-11-16 04:44:00,
2013-11-15 23:59:00,41.4,26.0,30.21,SSW,196,0.0,0.0,55,0.00,,,0.00,weatherlink.com 1.10,2013-11-16 04:59:00,